sensor_id;sensor_type;location;lat;lon;timestamp;P1;durP1;ratioP1;P2;durP2;ratioP2
27213;SDS011;14723;55.814;37.460;2023-02-28T00:00:49;10.90;;;4.95;;
27213;SDS011;14723;55.814;37.460;2023-02-28T00:03:55;15.13;;;6.30;;
27213;SDS011;14723;55.814;37.460;2023-02-28T00:07:01;12.65;;;5.53;;
27213;SDS011;14723;55.814;37.460;2023-02-28T00:10:07;13.40;;;5.90;;
27213;SDS011;14723;55.814;37.460;2023-02-28T00:13:13;14.18;;;6.45;;
27213;SDS011;14723;55.814;37.460;2023-02-28T00:16:21;13.43;;;5.43;;
27213;SDS011;14723;55.814;37.460;2023-02-28T00:19:27;14.15;;;5.75;;
27213;SDS011;14723;55.814;37.460;2023-02-28T00:22:32;12.52;;;5.68;;
27213;SDS011;14723;55.814;37.460;2023-02-28T00:25:38;11.63;;;4.95;;
27213;SDS011;14723;55.814;37.460;2023-02-28T00:28:43;11.85;;;5.30;;
27213;SDS011;14723;55.814;37.460;2023-02-28T00:31:50;12.05;;;5.78;;
27213;SDS011;14723;55.814;37.460;2023-02-28T00:34:56;15.75;;;6.75;;
27213;SDS011;14723;55.814;37.460;2023-02-28T00:38:01;12.45;;;5.90;;
27213;SDS011;14723;55.814;37.460;2023-02-28T00:44:14;18.00;;;6.38;;
27213;SDS011;14723;55.814;37.460;2023-02-28T00:47:22;12.43;;;6.47;;
27213;SDS011;14723;55.814;37.460;2023-02-28T00:50:29;12.20;;;5.72;;
27213;SDS011;14723;55.814;37.460;2023-02-28T00:53:34;11.30;;;4.85;;
27213;SDS011;14723;55.814;37.460;2023-02-28T00:56:40;11.52;;;5.03;;
27213;SDS011;14723;55.814;37.460;2023-02-28T00:59:45;13.43;;;5.40;;
27213;SDS011;14723;55.814;37.460;2023-02-28T01:02:53;14.65;;;5.80;;
27213;SDS011;14723;55.814;37.460;2023-02-28T01:05:58;11.63;;;5.10;;
27213;SDS011;14723;55.814;37.460;2023-02-28T01:09:03;10.32;;;5.68;;
27213;SDS011;14723;55.814;37.460;2023-02-28T01:12:09;11.90;;;5.20;;
27213;SDS011;14723;55.814;37.460;2023-02-28T01:15:15;15.98;;;6.45;;
27213;SDS011;14723;55.814;37.460;2023-02-28T01:18:22;12.05;;;5.70;;
27213;SDS011;14723;55.814;37.460;2023-02-28T01:21:28;12.15;;;5.63;;
27213;SDS011;14723;55.814;37.460;2023-02-28T01:24:34;12.27;;;5.70;;
27213;SDS011;14723;55.814;37.460;2023-02-28T01:27:39;15.18;;;6.50;;
27213;SDS011;14723;55.814;37.460;2023-02-28T01:30:47;10.75;;;5.72;;
27213;SDS011;14723;55.814;37.460;2023-02-28T01:33:55;12.02;;;5.13;;
27213;SDS011;14723;55.814;37.460;2023-02-28T01:37:02;15.27;;;5.75;;
27213;SDS011;14723;55.814;37.460;2023-02-28T01:40:08;12.82;;;5.57;;
27213;SDS011;14723;55.814;37.460;2023-02-28T01:43:19;12.13;;;5.63;;
27213;SDS011;14723;55.814;37.460;2023-02-28T01:46:24;13.13;;;5.28;;
27213;SDS011;14723;55.814;37.460;2023-02-28T01:49:33;11.18;;;5.40;;
27213;SDS011;14723;55.814;37.460;2023-02-28T01:52:38;13.77;;;6.43;;
27213;SDS011;14723;55.814;37.460;2023-02-28T01:55:45;11.85;;;5.82;;
27213;SDS011;14723;55.814;37.460;2023-02-28T01:58:52;12.93;;;6.03;;
27213;SDS011;14723;55.814;37.460;2023-02-28T02:01:57;14.10;;;5.70;;
27213;SDS011;14723;55.814;37.460;2023-02-28T02:05:06;12.98;;;5.15;;
27213;SDS011;14723;55.814;37.460;2023-02-28T02:08:13;11.75;;;5.18;;
27213;SDS011;14723;55.814;37.460;2023-02-28T02:11:19;13.85;;;6.28;;
27213;SDS011;14723;55.814;37.460;2023-02-28T02:14:30;11.32;;;5.35;;
27213;SDS011;14723;55.814;37.460;2023-02-28T02:17:37;15.20;;;4.60;;
27213;SDS011;14723;55.814;37.460;2023-02-28T02:20:56;10.93;;;4.68;;
27213;SDS011;14723;55.814;37.460;2023-02-28T02:24:14;11.48;;;4.93;;
27213;SDS011;14723;55.814;37.460;2023-02-28T02:27:28;15.80;;;5.18;;
27213;SDS011;14723;55.814;37.460;2023-02-28T02:30:44;11.63;;;4.85;;
27213;SDS011;14723;55.814;37.460;2023-02-28T02:34:20;11.90;;;3.85;;
27213;SDS011;14723;55.814;37.460;2023-02-28T02:37:30;9.35;;;4.43;;
27213;SDS011;14723;55.814;37.460;2023-02-28T02:40:43;9.93;;;4.82;;
27213;SDS011;14723;55.814;37.460;2023-02-28T02:43:51;10.07;;;4.75;;
27213;SDS011;14723;55.814;37.460;2023-02-28T02:46:58;8.83;;;4.37;;
27213;SDS011;14723;55.814;37.460;2023-02-28T02:50:08;9.33;;;4.43;;
27213;SDS011;14723;55.814;37.460;2023-02-28T02:53:16;12.48;;;5.38;;
27213;SDS011;14723;55.814;37.460;2023-02-28T02:56:24;8.20;;;4.05;;
27213;SDS011;14723;55.814;37.460;2023-02-28T02:59:31;12.18;;;4.63;;
27213;SDS011;14723;55.814;37.460;2023-02-28T03:02:37;10.10;;;4.32;;
27213;SDS011;14723;55.814;37.460;2023-02-28T03:05:48;10.15;;;4.75;;
27213;SDS011;14723;55.814;37.460;2023-02-28T03:08:53;11.23;;;5.35;;
27213;SDS011;14723;55.814;37.460;2023-02-28T03:11:59;10.65;;;4.57;;
27213;SDS011;14723;55.814;37.460;2023-02-28T03:15:07;11.32;;;4.80;;
27213;SDS011;14723;55.814;37.460;2023-02-28T03:18:15;10.10;;;4.30;;
27213;SDS011;14723;55.814;37.460;2023-02-28T03:21:32;11.23;;;4.82;;
27213;SDS011;14723;55.814;37.460;2023-02-28T03:24:40;10.00;;;5.10;;
27213;SDS011;14723;55.814;37.460;2023-02-28T03:27:49;11.68;;;5.25;;
27213;SDS011;14723;55.814;37.460;2023-02-28T03:30:58;13.10;;;5.43;;
27213;SDS011;14723;55.814;37.460;2023-02-28T03:34:06;11.40;;;5.10;;
27213;SDS011;14723;55.814;37.460;2023-02-28T03:37:17;12.20;;;4.53;;
27213;SDS011;14723;55.814;37.460;2023-02-28T03:40:25;12.32;;;5.65;;
27213;SDS011;14723;55.814;37.460;2023-02-28T03:43:34;15.40;;;5.82;;
27213;SDS011;14723;55.814;37.460;2023-02-28T03:46:41;13.63;;;6.05;;
27213;SDS011;14723;55.814;37.460;2023-02-28T03:49:52;11.60;;;5.05;;
27213;SDS011;14723;55.814;37.460;2023-02-28T03:53:02;11.70;;;5.32;;
27213;SDS011;14723;55.814;37.460;2023-02-28T03:56:11;11.82;;;5.35;;
27213;SDS011;14723;55.814;37.460;2023-02-28T03:59:18;10.02;;;5.32;;
27213;SDS011;14723;55.814;37.460;2023-02-28T04:02:23;13.07;;;5.53;;
27213;SDS011;14723;55.814;37.460;2023-02-28T04:05:28;9.18;;;4.78;;
27213;SDS011;14723;55.814;37.460;2023-02-28T04:08:37;11.55;;;4.72;;
27213;SDS011;14723;55.814;37.460;2023-02-28T04:11:44;9.32;;;4.35;;
27213;SDS011;14723;55.814;37.460;2023-02-28T04:14:49;11.93;;;4.40;;
27213;SDS011;14723;55.814;37.460;2023-02-28T04:17:54;8.10;;;4.20;;
27213;SDS011;14723;55.814;37.460;2023-02-28T04:20:59;8.65;;;4.43;;
27213;SDS011;14723;55.814;37.460;2023-02-28T04:24:08;7.93;;;4.00;;
27213;SDS011;14723;55.814;37.460;2023-02-28T04:27:16;10.55;;;3.95;;
27213;SDS011;14723;55.814;37.460;2023-02-28T04:30:22;11.32;;;4.75;;
27213;SDS011;14723;55.814;37.460;2023-02-28T04:33:27;10.18;;;4.80;;
27213;SDS011;14723;55.814;37.460;2023-02-28T04:36:33;9.00;;;3.95;;
27213;SDS011;14723;55.814;37.460;2023-02-28T04:39:41;7.40;;;3.70;;
27213;SDS011;14723;55.814;37.460;2023-02-28T04:42:46;10.32;;;4.32;;
27213;SDS011;14723;55.814;37.460;2023-02-28T04:45:52;12.73;;;4.63;;
27213;SDS011;14723;55.814;37.460;2023-02-28T04:48:58;9.98;;;4.43;;
27213;SDS011;14723;55.814;37.460;2023-02-28T04:52:04;9.65;;;4.10;;
27213;SDS011;14723;55.814;37.460;2023-02-28T04:55:12;9.75;;;4.15;;
27213;SDS011;14723;55.814;37.460;2023-02-28T04:58:18;10.23;;;3.85;;
27213;SDS011;14723;55.814;37.460;2023-02-28T05:01:25;10.20;;;3.40;;
27213;SDS011;14723;55.814;37.460;2023-02-28T05:04:32;9.40;;;4.28;;
27213;SDS011;14723;55.814;37.460;2023-02-28T05:07:38;9.10;;;4.30;;
27213;SDS011;14723;55.814;37.460;2023-02-28T05:10:46;10.70;;;4.00;;
27213;SDS011;14723;55.814;37.460;2023-02-28T05:16:56;7.70;;;4.05;;
27213;SDS011;14723;55.814;37.460;2023-02-28T05:20:01;8.85;;;4.03;;
27213;SDS011;14723;55.814;37.460;2023-02-28T05:23:16;10.93;;;4.15;;
27213;SDS011;14723;55.814;37.460;2023-02-28T05:26:25;10.35;;;4.20;;
27213;SDS011;14723;55.814;37.460;2023-02-28T05:29:30;9.63;;;3.85;;
27213;SDS011;14723;55.814;37.460;2023-02-28T05:32:36;9.93;;;4.07;;
27213;SDS011;14723;55.814;37.460;2023-02-28T05:38:50;7.30;;;3.58;;
27213;SDS011;14723;55.814;37.460;2023-02-28T05:41:58;9.40;;;3.90;;
27213;SDS011;14723;55.814;37.460;2023-02-28T05:48:09;8.00;;;4.38;;
27213;SDS011;14723;55.814;37.460;2023-02-28T05:51:15;10.32;;;3.75;;
27213;SDS011;14723;55.814;37.460;2023-02-28T05:54:20;7.47;;;3.60;;
27213;SDS011;14723;55.814;37.460;2023-02-28T05:57:28;7.50;;;3.63;;
27213;SDS011;14723;55.814;37.460;2023-02-28T06:00:33;9.38;;;3.83;;
27213;SDS011;14723;55.814;37.460;2023-02-28T06:03:38;8.95;;;3.75;;
27213;SDS011;14723;55.814;37.460;2023-02-28T06:06:44;8.50;;;4.00;;
27213;SDS011;14723;55.814;37.460;2023-02-28T06:09:49;9.90;;;4.88;;
27213;SDS011;14723;55.814;37.460;2023-02-28T06:12:57;11.32;;;3.83;;
27213;SDS011;14723;55.814;37.460;2023-02-28T06:16:05;6.78;;;3.70;;
27213;SDS011;14723;55.814;37.460;2023-02-28T06:19:10;7.60;;;3.60;;
27213;SDS011;14723;55.814;37.460;2023-02-28T06:22:15;9.02;;;4.40;;
27213;SDS011;14723;55.814;37.460;2023-02-28T06:25:21;8.07;;;3.28;;
27213;SDS011;14723;55.814;37.460;2023-02-28T06:28:29;6.13;;;3.00;;
27213;SDS011;14723;55.814;37.460;2023-02-28T06:31:34;10.68;;;3.60;;
27213;SDS011;14723;55.814;37.460;2023-02-28T06:34:40;5.85;;;3.58;;
27213;SDS011;14723;55.814;37.460;2023-02-28T06:37:45;7.38;;;4.00;;
27213;SDS011;14723;55.814;37.460;2023-02-28T06:40:55;5.65;;;2.85;;
27213;SDS011;14723;55.814;37.460;2023-02-28T06:44:03;6.97;;;3.28;;
27213;SDS011;14723;55.814;37.460;2023-02-28T06:47:09;8.85;;;3.40;;
27213;SDS011;14723;55.814;37.460;2023-02-28T06:50:14;7.03;;;3.42;;
27213;SDS011;14723;55.814;37.460;2023-02-28T06:53:22;8.38;;;3.45;;
27213;SDS011;14723;55.814;37.460;2023-02-28T06:56:28;6.28;;;3.25;;
27213;SDS011;14723;55.814;37.460;2023-02-28T06:59:36;6.53;;;3.15;;
27213;SDS011;14723;55.814;37.460;2023-02-28T07:02:41;7.18;;;3.78;;
27213;SDS011;14723;55.814;37.460;2023-02-28T07:05:47;5.15;;;2.90;;
27213;SDS011;14723;55.814;37.460;2023-02-28T07:08:53;7.43;;;3.30;;
27213;SDS011;14723;55.814;37.460;2023-02-28T07:11:58;7.88;;;3.20;;
27213;SDS011;14723;55.814;37.460;2023-02-28T07:15:06;8.20;;;3.70;;
27213;SDS011;14723;55.814;37.460;2023-02-28T07:18:12;6.47;;;3.20;;
27213;SDS011;14723;55.814;37.460;2023-02-28T07:21:18;6.63;;;3.22;;
27213;SDS011;14723;55.814;37.460;2023-02-28T07:24:23;10.00;;;3.50;;
27213;SDS011;14723;55.814;37.460;2023-02-28T07:27:30;6.72;;;3.08;;
27213;SDS011;14723;55.814;37.460;2023-02-28T07:30:38;5.43;;;3.05;;
27213;SDS011;14723;55.814;37.460;2023-02-28T07:33:44;6.30;;;3.25;;
27213;SDS011;14723;55.814;37.460;2023-02-28T07:36:52;7.32;;;3.17;;
27213;SDS011;14723;55.814;37.460;2023-02-28T07:39:57;7.13;;;3.85;;
27213;SDS011;14723;55.814;37.460;2023-02-28T07:43:04;7.05;;;3.50;;
27213;SDS011;14723;55.814;37.460;2023-02-28T07:46:12;6.57;;;3.15;;
27213;SDS011;14723;55.814;37.460;2023-02-28T07:49:19;6.53;;;2.88;;
27213;SDS011;14723;55.814;37.460;2023-02-28T07:52:26;7.57;;;3.22;;
27213;SDS011;14723;55.814;37.460;2023-02-28T07:55:32;7.25;;;3.50;;
27213;SDS011;14723;55.814;37.460;2023-02-28T07:58:37;9.63;;;3.83;;
27213;SDS011;14723;55.814;37.460;2023-02-28T08:01:45;7.40;;;3.00;;
27213;SDS011;14723;55.814;37.460;2023-02-28T08:04:52;7.38;;;3.30;;
27213;SDS011;14723;55.814;37.460;2023-02-28T08:07:59;8.90;;;3.80;;
27213;SDS011;14723;55.814;37.460;2023-02-28T08:11:10;6.55;;;3.25;;
27213;SDS011;14723;55.814;37.460;2023-02-28T08:14:16;7.00;;;3.15;;
27213;SDS011;14723;55.814;37.460;2023-02-28T08:17:25;9.27;;;3.63;;
27213;SDS011;14723;55.814;37.460;2023-02-28T08:23:37;5.15;;;2.25;;
27213;SDS011;14723;55.814;37.460;2023-02-28T08:26:43;9.30;;;3.67;;
27213;SDS011;14723;55.814;37.460;2023-02-28T08:29:49;7.60;;;3.08;;
27213;SDS011;14723;55.814;37.460;2023-02-28T08:32:59;6.20;;;3.00;;
27213;SDS011;14723;55.814;37.460;2023-02-28T08:36:08;8.13;;;3.20;;
27213;SDS011;14723;55.814;37.460;2023-02-28T08:39:13;7.07;;;3.67;;
27213;SDS011;14723;55.814;37.460;2023-02-28T08:42:20;6.57;;;3.33;;
27213;SDS011;14723;55.814;37.460;2023-02-28T08:45:26;8.73;;;3.72;;
27213;SDS011;14723;55.814;37.460;2023-02-28T08:48:35;9.38;;;3.00;;
27213;SDS011;14723;55.814;37.460;2023-02-28T08:51:43;8.85;;;3.47;;
27213;SDS011;14723;55.814;37.460;2023-02-28T08:54:54;8.05;;;3.17;;
27213;SDS011;14723;55.814;37.460;2023-02-28T08:58:02;8.82;;;3.67;;
27213;SDS011;14723;55.814;37.460;2023-02-28T09:01:08;9.32;;;3.40;;
27213;SDS011;14723;55.814;37.460;2023-02-28T09:04:17;7.13;;;3.42;;
27213;SDS011;14723;55.814;37.460;2023-02-28T09:07:26;8.63;;;2.88;;
27213;SDS011;14723;55.814;37.460;2023-02-28T09:10:33;9.27;;;3.45;;
27213;SDS011;14723;55.814;37.460;2023-02-28T09:13:39;8.93;;;4.05;;
27213;SDS011;14723;55.814;37.460;2023-02-28T09:16:44;13.25;;;3.40;;
27213;SDS011;14723;55.814;37.460;2023-02-28T09:19:52;5.85;;;3.13;;
27213;SDS011;14723;55.814;37.460;2023-02-28T09:22:58;8.27;;;2.83;;
27213;SDS011;14723;55.814;37.460;2023-02-28T09:26:04;10.07;;;2.78;;
27213;SDS011;14723;55.814;37.460;2023-02-28T09:29:09;8.18;;;3.08;;
27213;SDS011;14723;55.814;37.460;2023-02-28T09:32:16;5.82;;;2.60;;
27213;SDS011;14723;55.814;37.460;2023-02-28T09:35:24;12.50;;;3.90;;
27213;SDS011;14723;55.814;37.460;2023-02-28T09:38:30;10.88;;;3.35;;
27213;SDS011;14723;55.814;37.460;2023-02-28T09:41:37;8.00;;;3.05;;
27213;SDS011;14723;55.814;37.460;2023-02-28T09:44:49;26.05;;;3.42;;
27213;SDS011;14723;55.814;37.460;2023-02-28T09:47:56;6.75;;;2.90;;
27213;SDS011;14723;55.814;37.460;2023-02-28T09:51:12;6.78;;;3.05;;
27213;SDS011;14723;55.814;37.460;2023-02-28T09:54:19;7.45;;;2.83;;
27213;SDS011;14723;55.814;37.460;2023-02-28T09:57:31;7.10;;;3.25;;
27213;SDS011;14723;55.814;37.460;2023-02-28T10:00:38;8.27;;;3.20;;
27213;SDS011;14723;55.814;37.460;2023-02-28T10:03:49;5.25;;;2.47;;
27213;SDS011;14723;55.814;37.460;2023-02-28T10:06:59;5.75;;;2.30;;
27213;SDS011;14723;55.814;37.460;2023-02-28T10:10:07;9.63;;;2.88;;
27213;SDS011;14723;55.814;37.460;2023-02-28T10:13:22;7.10;;;2.80;;
27213;SDS011;14723;55.814;37.460;2023-02-28T10:16:29;11.05;;;4.07;;
27213;SDS011;14723;55.814;37.460;2023-02-28T10:19:51;7.45;;;3.00;;
27213;SDS011;14723;55.814;37.460;2023-02-28T10:23:01;7.13;;;2.70;;
27213;SDS011;14723;55.814;37.460;2023-02-28T10:26:12;6.18;;;2.63;;
27213;SDS011;14723;55.814;37.460;2023-02-28T10:29:18;7.45;;;4.10;;
27213;SDS011;14723;55.814;37.460;2023-02-28T10:32:25;9.13;;;3.17;;
27213;SDS011;14723;55.814;37.460;2023-02-28T10:35:32;8.75;;;3.28;;
27213;SDS011;14723;55.814;37.460;2023-02-28T10:38:40;6.82;;;3.55;;
27213;SDS011;14723;55.814;37.460;2023-02-28T10:41:46;8.40;;;3.45;;
27213;SDS011;14723;55.814;37.460;2023-02-28T10:45:09;7.80;;;2.95;;
27213;SDS011;14723;55.814;37.460;2023-02-28T10:48:26;10.73;;;3.47;;
27213;SDS011;14723;55.814;37.460;2023-02-28T10:51:36;5.60;;;3.22;;
27213;SDS011;14723;55.814;37.460;2023-02-28T10:54:44;6.55;;;3.10;;
27213;SDS011;14723;55.814;37.460;2023-02-28T10:57:50;7.75;;;3.75;;
27213;SDS011;14723;55.814;37.460;2023-02-28T11:00:57;8.32;;;3.22;;
27213;SDS011;14723;55.814;37.460;2023-02-28T11:04:03;7.35;;;3.10;;
27213;SDS011;14723;55.814;37.460;2023-02-28T11:07:22;6.03;;;3.33;;
27213;SDS011;14723;55.814;37.460;2023-02-28T11:10:34;7.70;;;3.40;;
27213;SDS011;14723;55.814;37.460;2023-02-28T11:13:39;7.88;;;3.58;;
27213;SDS011;14723;55.814;37.460;2023-02-28T11:16:45;7.95;;;3.67;;
27213;SDS011;14723;55.814;37.460;2023-02-28T11:19:52;6.45;;;3.30;;
27213;SDS011;14723;55.814;37.460;2023-02-28T11:22:59;6.07;;;3.05;;
27213;SDS011;14723;55.814;37.460;2023-02-28T11:26:08;10.63;;;3.65;;
27213;SDS011;14723;55.814;37.460;2023-02-28T11:29:17;7.45;;;3.40;;
27213;SDS011;14723;55.814;37.460;2023-02-28T11:32:23;7.68;;;3.45;;
27213;SDS011;14723;55.814;37.460;2023-02-28T11:35:31;8.80;;;4.00;;
27213;SDS011;14723;55.814;37.460;2023-02-28T11:38:38;8.55;;;3.55;;
27213;SDS011;14723;55.814;37.460;2023-02-28T11:41:52;9.10;;;4.32;;
27213;SDS011;14723;55.814;37.460;2023-02-28T11:45:19;6.65;;;3.67;;
27213;SDS011;14723;55.814;37.460;2023-02-28T11:48:27;10.75;;;4.00;;
27213;SDS011;14723;55.814;37.460;2023-02-28T11:51:35;6.97;;;3.10;;
27213;SDS011;14723;55.814;37.460;2023-02-28T11:54:53;8.82;;;3.65;;
27213;SDS011;14723;55.814;37.460;2023-02-28T11:58:09;8.15;;;3.55;;
27213;SDS011;14723;55.814;37.460;2023-02-28T12:01:22;5.22;;;3.22;;
27213;SDS011;14723;55.814;37.460;2023-02-28T12:04:34;8.63;;;3.92;;
27213;SDS011;14723;55.814;37.460;2023-02-28T12:07:49;11.13;;;3.90;;
27213;SDS011;14723;55.814;37.460;2023-02-28T12:10:59;7.82;;;3.53;;
27213;SDS011;14723;55.814;37.460;2023-02-28T12:17:40;8.35;;;4.05;;
27213;SDS011;14723;55.814;37.460;2023-02-28T12:20:52;7.93;;;3.63;;
27213;SDS011;14723;55.814;37.460;2023-02-28T12:24:01;9.85;;;3.53;;
27213;SDS011;14723;55.814;37.460;2023-02-28T12:27:10;7.43;;;3.63;;
27213;SDS011;14723;55.814;37.460;2023-02-28T12:30:17;9.25;;;4.35;;
27213;SDS011;14723;55.814;37.460;2023-02-28T12:33:28;7.15;;;3.53;;
27213;SDS011;14723;55.814;37.460;2023-02-28T12:36:35;8.27;;;3.65;;
27213;SDS011;14723;55.814;37.460;2023-02-28T12:39:43;6.30;;;3.30;;
27213;SDS011;14723;55.814;37.460;2023-02-28T12:42:55;6.22;;;3.35;;
27213;SDS011;14723;55.814;37.460;2023-02-28T12:46:02;9.10;;;3.78;;
27213;SDS011;14723;55.814;37.460;2023-02-28T12:49:13;8.30;;;4.30;;
27213;SDS011;14723;55.814;37.460;2023-02-28T12:52:22;9.10;;;3.95;;
27213;SDS011;14723;55.814;37.460;2023-02-28T12:58:35;7.68;;;3.55;;
27213;SDS011;14723;55.814;37.460;2023-02-28T13:05:17;7.25;;;4.03;;
27213;SDS011;14723;55.814;37.460;2023-02-28T13:11:47;5.75;;;3.30;;
27213;SDS011;14723;55.814;37.460;2023-02-28T13:15:00;6.53;;;3.28;;
27213;SDS011;14723;55.814;37.460;2023-02-28T13:18:20;8.93;;;3.92;;
27213;SDS011;14723;55.814;37.460;2023-02-28T13:21:33;9.80;;;3.63;;
27213;SDS011;14723;55.814;37.460;2023-02-28T13:24:47;7.82;;;3.58;;
27213;SDS011;14723;55.814;37.460;2023-02-28T13:27:53;12.63;;;4.03;;
27213;SDS011;14723;55.814;37.460;2023-02-28T13:31:04;6.80;;;2.80;;
27213;SDS011;14723;55.814;37.460;2023-02-28T13:34:14;6.50;;;3.85;;
27213;SDS011;14723;55.814;37.460;2023-02-28T13:37:35;7.28;;;3.20;;
27213;SDS011;14723;55.814;37.460;2023-02-28T13:40:40;9.50;;;3.95;;
27213;SDS011;14723;55.814;37.460;2023-02-28T13:43:59;6.82;;;3.22;;
27213;SDS011;14723;55.814;37.460;2023-02-28T13:50:27;9.38;;;3.70;;
27213;SDS011;14723;55.814;37.460;2023-02-28T13:57:01;8.23;;;3.50;;
27213;SDS011;14723;55.814;37.460;2023-02-28T14:00:15;8.55;;;3.20;;
27213;SDS011;14723;55.814;37.460;2023-02-28T14:03:36;6.70;;;3.40;;
27213;SDS011;14723;55.814;37.460;2023-02-28T14:06:47;9.45;;;3.80;;
27213;SDS011;14723;55.814;37.460;2023-02-28T14:09:58;5.55;;;3.00;;
27213;SDS011;14723;55.814;37.460;2023-02-28T14:16:35;5.00;;;2.88;;
27213;SDS011;14723;55.814;37.460;2023-02-28T14:19:43;4.63;;;2.90;;
27213;SDS011;14723;55.814;37.460;2023-02-28T14:22:53;6.07;;;2.58;;
27213;SDS011;14723;55.814;37.460;2023-02-28T14:26:02;6.32;;;3.33;;
27213;SDS011;14723;55.814;37.460;2023-02-28T14:29:14;10.35;;;2.92;;
27213;SDS011;14723;55.814;37.460;2023-02-28T14:32:25;7.90;;;3.15;;
27213;SDS011;14723;55.814;37.460;2023-02-28T14:35:45;6.35;;;3.38;;
27213;SDS011;14723;55.814;37.460;2023-02-28T14:38:55;8.57;;;4.35;;
27213;SDS011;14723;55.814;37.460;2023-02-28T14:42:01;8.88;;;3.88;;
27213;SDS011;14723;55.814;37.460;2023-02-28T14:45:17;11.48;;;3.95;;
27213;SDS011;14723;55.814;37.460;2023-02-28T14:48:25;10.45;;;4.05;;
27213;SDS011;14723;55.814;37.460;2023-02-28T14:51:31;11.40;;;4.45;;
27213;SDS011;14723;55.814;37.460;2023-02-28T14:54:37;11.43;;;3.80;;
27213;SDS011;14723;55.814;37.460;2023-02-28T14:57:50;7.75;;;3.50;;
27213;SDS011;14723;55.814;37.460;2023-02-28T15:00:56;7.22;;;3.70;;
27213;SDS011;14723;55.814;37.460;2023-02-28T15:04:05;9.02;;;3.65;;
27213;SDS011;14723;55.814;37.460;2023-02-28T15:07:13;12.63;;;4.00;;
27213;SDS011;14723;55.814;37.460;2023-02-28T15:10:20;6.95;;;3.55;;
27213;SDS011;14723;55.814;37.460;2023-02-28T15:13:26;7.97;;;3.47;;
27213;SDS011;14723;55.814;37.460;2023-02-28T15:16:36;6.95;;;3.38;;
27213;SDS011;14723;55.814;37.460;2023-02-28T15:19:46;9.13;;;3.63;;
27213;SDS011;14723;55.814;37.460;2023-02-28T15:22:54;5.72;;;2.97;;
27213;SDS011;14723;55.814;37.460;2023-02-28T15:26:01;6.05;;;2.88;;
27213;SDS011;14723;55.814;37.460;2023-02-28T15:29:10;7.53;;;3.03;;
27213;SDS011;14723;55.814;37.460;2023-02-28T15:32:24;7.10;;;3.45;;
27213;SDS011;14723;55.814;37.460;2023-02-28T15:35:34;5.88;;;2.95;;
27213;SDS011;14723;55.814;37.460;2023-02-28T15:38:40;7.80;;;3.63;;
27213;SDS011;14723;55.814;37.460;2023-02-28T15:41:46;7.88;;;3.60;;
27213;SDS011;14723;55.814;37.460;2023-02-28T15:44:51;12.85;;;5.35;;
27213;SDS011;14723;55.814;37.460;2023-02-28T15:47:56;7.88;;;2.95;;
27213;SDS011;14723;55.814;37.460;2023-02-28T15:51:18;6.55;;;2.88;;
27213;SDS011;14723;55.814;37.460;2023-02-28T15:54:25;8.52;;;3.28;;
27213;SDS011;14723;55.814;37.460;2023-02-28T15:57:32;12.68;;;2.88;;
27213;SDS011;14723;55.814;37.460;2023-02-28T16:00:37;6.93;;;3.72;;
27213;SDS011;14723;55.814;37.460;2023-02-28T16:03:44;5.40;;;3.25;;
27213;SDS011;14723;55.814;37.460;2023-02-28T16:07:02;4.93;;;2.92;;
27213;SDS011;14723;55.814;37.460;2023-02-28T16:13:13;4.25;;;2.80;;
27213;SDS011;14723;55.814;37.460;2023-02-28T16:16:19;8.60;;;4.05;;
27213;SDS011;14723;55.814;37.460;2023-02-28T16:19:25;5.57;;;3.00;;
27213;SDS011;14723;55.814;37.460;2023-02-28T16:22:34;5.25;;;2.85;;
27213;SDS011;14723;55.814;37.460;2023-02-28T16:25:40;5.72;;;3.00;;
27213;SDS011;14723;55.814;37.460;2023-02-28T16:28:46;6.55;;;2.72;;
27213;SDS011;14723;55.814;37.460;2023-02-28T16:31:51;4.15;;;2.33;;
27213;SDS011;14723;55.814;37.460;2023-02-28T16:34:56;6.80;;;3.05;;
27213;SDS011;14723;55.814;37.460;2023-02-28T16:38:06;6.32;;;3.00;;
27213;SDS011;14723;55.814;37.460;2023-02-28T16:41:12;6.93;;;3.13;;
27213;SDS011;14723;55.814;37.460;2023-02-28T16:44:23;4.80;;;2.85;;
27213;SDS011;14723;55.814;37.460;2023-02-28T16:47:29;5.65;;;3.08;;
27213;SDS011;14723;55.814;37.460;2023-02-28T16:50:35;5.47;;;3.05;;
27213;SDS011;14723;55.814;37.460;2023-02-28T16:53:43;6.82;;;3.30;;
27213;SDS011;14723;55.814;37.460;2023-02-28T16:56:49;7.93;;;3.95;;
27213;SDS011;14723;55.814;37.460;2023-02-28T16:59:54;6.45;;;3.85;;
27213;SDS011;14723;55.814;37.460;2023-02-28T17:03:00;6.15;;;3.45;;
27213;SDS011;14723;55.814;37.460;2023-02-28T17:06:13;6.38;;;4.00;;
27213;SDS011;14723;55.814;37.460;2023-02-28T17:09:23;6.35;;;3.60;;
27213;SDS011;14723;55.814;37.460;2023-02-28T17:12:41;4.05;;;2.78;;
27213;SDS011;14723;55.814;37.460;2023-02-28T17:15:46;3.83;;;2.55;;
27213;SDS011;14723;55.814;37.460;2023-02-28T17:18:53;5.32;;;2.85;;
27213;SDS011;14723;55.814;37.460;2023-02-28T17:21:59;4.22;;;2.50;;
27213;SDS011;14723;55.814;37.460;2023-02-28T17:25:08;5.57;;;2.10;;
27213;SDS011;14723;55.814;37.460;2023-02-28T17:28:14;3.20;;;2.10;;
27213;SDS011;14723;55.814;37.460;2023-02-28T17:34:27;4.55;;;2.47;;
27213;SDS011;14723;55.814;37.460;2023-02-28T17:37:32;7.00;;;2.10;;
27213;SDS011;14723;55.814;37.460;2023-02-28T17:40:40;5.13;;;2.50;;
27213;SDS011;14723;55.814;37.460;2023-02-28T17:43:46;6.25;;;2.78;;
27213;SDS011;14723;55.814;37.460;2023-02-28T17:46:52;5.55;;;1.85;;
27213;SDS011;14723;55.814;37.460;2023-02-28T17:49:58;4.70;;;1.02;;
27213;SDS011;14723;55.814;37.460;2023-02-28T17:53:04;2.08;;;1.00;;
27213;SDS011;14723;55.814;37.460;2023-02-28T17:56:14;3.42;;;0.85;;
27213;SDS011;14723;55.814;37.460;2023-02-28T17:59:20;8.73;;;0.65;;
27213;SDS011;14723;55.814;37.460;2023-02-28T18:02:26;1.88;;;0.70;;
27213;SDS011;14723;55.814;37.460;2023-02-28T18:05:31;4.93;;;0.85;;
27213;SDS011;14723;55.814;37.460;2023-02-28T18:08:39;6.20;;;0.77;;
27213;SDS011;14723;55.814;37.460;2023-02-28T18:11:47;4.35;;;0.60;;
27213;SDS011;14723;55.814;37.460;2023-02-28T18:14:53;1.30;;;0.60;;
27213;SDS011;14723;55.814;37.460;2023-02-28T18:17:59;3.85;;;0.75;;
27213;SDS011;14723;55.814;37.460;2023-02-28T18:21:05;4.20;;;1.20;;
27213;SDS011;14723;55.814;37.460;2023-02-28T18:24:11;1.50;;;0.90;;
27213;SDS011;14723;55.814;37.460;2023-02-28T18:27:19;3.33;;;0.90;;
27213;SDS011;14723;55.814;37.460;2023-02-28T18:30:24;2.10;;;1.00;;
27213;SDS011;14723;55.814;37.460;2023-02-28T18:33:31;2.80;;;1.10;;
27213;SDS011;14723;55.814;37.460;2023-02-28T18:36:37;1.92;;;1.10;;
27213;SDS011;14723;55.814;37.460;2023-02-28T18:39:43;6.00;;;1.17;;
27213;SDS011;14723;55.814;37.460;2023-02-28T18:42:51;2.15;;;0.90;;
27213;SDS011;14723;55.814;37.460;2023-02-28T18:45:56;3.63;;;1.00;;
27213;SDS011;14723;55.814;37.460;2023-02-28T18:49:02;2.65;;;0.88;;
27213;SDS011;14723;55.814;37.460;2023-02-28T18:52:08;3.47;;;1.00;;
27213;SDS011;14723;55.814;37.460;2023-02-28T18:55:13;3.05;;;0.70;;
27213;SDS011;14723;55.814;37.460;2023-02-28T18:58:22;5.47;;;2.03;;
27213;SDS011;14723;55.814;37.460;2023-02-28T19:01:29;2.53;;;1.00;;
27213;SDS011;14723;55.814;37.460;2023-02-28T19:04:34;3.20;;;0.82;;
27213;SDS011;14723;55.814;37.460;2023-02-28T19:07:40;2.67;;;0.82;;
27213;SDS011;14723;55.814;37.460;2023-02-28T19:10:45;5.88;;;1.20;;
27213;SDS011;14723;55.814;37.460;2023-02-28T19:13:53;2.78;;;1.20;;
27213;SDS011;14723;55.814;37.460;2023-02-28T19:16:58;5.28;;;1.80;;